sensor_id;sensor_type;location;lat;lon;timestamp;P1;durP1;ratioP1;P2;durP2;ratioP2
27796;SDS011;15177;50.844;4.412;2024-02-04T00:01:02;29.63;;;13.30;;
27796;SDS011;15177;50.844;4.412;2024-02-04T00:03:28;19.47;;;12.97;;
27796;SDS011;15177;50.844;4.412;2024-02-04T00:05:54;23.63;;;12.17;;
27796;SDS011;15177;50.844;4.412;2024-02-04T00:08:19;21.33;;;12.53;;
27796;SDS011;15177;50.844;4.412;2024-02-04T00:10:47;25.53;;;13.63;;
27796;SDS011;15177;50.844;4.412;2024-02-04T00:13:13;24.90;;;12.70;;
27796;SDS011;15177;50.844;4.412;2024-02-04T00:15:39;26.67;;;12.07;;
27796;SDS011;15177;50.844;4.412;2024-02-04T00:18:04;23.40;;;13.20;;
27796;SDS011;15177;50.844;4.412;2024-02-04T00:20:31;21.97;;;11.40;;
27796;SDS011;15177;50.844;4.412;2024-02-04T00:22:57;29.30;;;13.17;;
27796;SDS011;15177;50.844;4.412;2024-02-04T00:25:26;20.07;;;12.43;;
27796;SDS011;15177;50.844;4.412;2024-02-04T00:27:54;21.50;;;11.87;;
27796;SDS011;15177;50.844;4.412;2024-02-04T00:30:21;22.93;;;12.10;;
27796;SDS011;15177;50.844;4.412;2024-02-04T00:32:51;20.17;;;11.17;;
27796;SDS011;15177;50.844;4.412;2024-02-04T00:35:17;22.90;;;11.67;;
27796;SDS011;15177;50.844;4.412;2024-02-04T00:37:42;21.47;;;10.80;;
27796;SDS011;15177;50.844;4.412;2024-02-04T00:40:08;23.90;;;12.07;;
27796;SDS011;15177;50.844;4.412;2024-02-04T00:42:34;23.30;;;10.90;;
27796;SDS011;15177;50.844;4.412;2024-02-04T00:45:00;21.33;;;11.23;;
27796;SDS011;15177;50.844;4.412;2024-02-04T00:47:26;21.23;;;11.40;;
27796;SDS011;15177;50.844;4.412;2024-02-04T00:49:51;18.50;;;10.37;;
27796;SDS011;15177;50.844;4.412;2024-02-04T00:52:17;21.57;;;10.77;;
27796;SDS011;15177;50.844;4.412;2024-02-04T00:54:43;23.10;;;10.07;;
27796;SDS011;15177;50.844;4.412;2024-02-04T00:57:08;20.17;;;9.90;;
27796;SDS011;15177;50.844;4.412;2024-02-04T00:59:34;17.87;;;9.90;;
27796;SDS011;15177;50.844;4.412;2024-02-04T01:02:02;16.23;;;9.90;;
27796;SDS011;15177;50.844;4.412;2024-02-04T01:04:28;20.70;;;10.33;;
27796;SDS011;15177;50.844;4.412;2024-02-04T01:06:56;20.77;;;9.27;;
27796;SDS011;15177;50.844;4.412;2024-02-04T01:09:21;19.60;;;9.80;;
27796;SDS011;15177;50.844;4.412;2024-02-04T01:11:47;26.40;;;11.33;;
27796;SDS011;15177;50.844;4.412;2024-02-04T01:14:13;15.10;;;8.87;;
27796;SDS011;15177;50.844;4.412;2024-02-04T01:16:39;17.07;;;9.67;;
27796;SDS011;15177;50.844;4.412;2024-02-04T01:19:04;20.27;;;8.87;;
27796;SDS011;15177;50.844;4.412;2024-02-04T01:21:32;18.40;;;8.77;;
27796;SDS011;15177;50.844;4.412;2024-02-04T01:23:58;21.00;;;9.97;;
27796;SDS011;15177;50.844;4.412;2024-02-04T01:26:26;16.30;;;9.23;;
27796;SDS011;15177;50.844;4.412;2024-02-04T01:28:51;23.57;;;9.47;;
27796;SDS011;15177;50.844;4.412;2024-02-04T01:31:17;16.40;;;8.60;;
27796;SDS011;15177;50.844;4.412;2024-02-04T01:33:42;15.50;;;8.83;;
27796;SDS011;15177;50.844;4.412;2024-02-04T01:36:08;19.07;;;8.83;;
27796;SDS011;15177;50.844;4.412;2024-02-04T01:38:34;18.97;;;10.27;;
27796;SDS011;15177;50.844;4.412;2024-02-04T01:41:02;17.57;;;8.83;;
27796;SDS011;15177;50.844;4.412;2024-02-04T01:43:29;18.40;;;9.17;;
27796;SDS011;15177;50.844;4.412;2024-02-04T01:45:56;18.90;;;9.87;;
27796;SDS011;15177;50.844;4.412;2024-02-04T01:48:22;19.07;;;10.20;;
27796;SDS011;15177;50.844;4.412;2024-02-04T01:50:51;14.13;;;9.13;;
27796;SDS011;15177;50.844;4.412;2024-02-04T01:53:20;16.20;;;9.37;;
27796;SDS011;15177;50.844;4.412;2024-02-04T01:55:48;18.77;;;9.90;;
27796;SDS011;15177;50.844;4.412;2024-02-04T01:58:15;22.00;;;9.67;;
27796;SDS011;15177;50.844;4.412;2024-02-04T02:00:40;20.20;;;10.30;;
27796;SDS011;15177;50.844;4.412;2024-02-04T02:03:07;19.87;;;9.47;;
27796;SDS011;15177;50.844;4.412;2024-02-04T02:05:36;20.87;;;10.23;;
27796;SDS011;15177;50.844;4.412;2024-02-04T02:08:04;18.77;;;9.43;;
27796;SDS011;15177;50.844;4.412;2024-02-04T02:10:30;23.90;;;10.37;;
27796;SDS011;15177;50.844;4.412;2024-02-04T02:13:01;19.97;;;10.63;;
27796;SDS011;15177;50.844;4.412;2024-02-04T02:15:36;14.83;;;10.47;;
27796;SDS011;15177;50.844;4.412;2024-02-04T02:18:22;20.07;;;11.13;;
27796;SDS011;15177;50.844;4.412;2024-02-04T02:23:47;22.37;;;10.23;;
27796;SDS011;15177;50.844;4.412;2024-02-04T02:26:21;22.37;;;10.33;;
27796;SDS011;15177;50.844;4.412;2024-02-04T02:28:47;19.90;;;9.97;;
27796;SDS011;15177;50.844;4.412;2024-02-04T02:31:15;22.90;;;10.40;;
27796;SDS011;15177;50.844;4.412;2024-02-04T02:33:41;18.27;;;10.43;;
27796;SDS011;15177;50.844;4.412;2024-02-04T02:36:08;24.13;;;12.57;;
27796;SDS011;15177;50.844;4.412;2024-02-04T02:38:52;22.43;;;11.07;;
27796;SDS011;15177;50.844;4.412;2024-02-04T02:41:34;25.10;;;11.53;;
27796;SDS011;15177;50.844;4.412;2024-02-04T02:44:00;23.13;;;12.03;;
27796;SDS011;15177;50.844;4.412;2024-02-04T02:46:28;28.23;;;11.53;;
27796;SDS011;15177;50.844;4.412;2024-02-04T02:48:53;35.50;;;11.97;;
27796;SDS011;15177;50.844;4.412;2024-02-04T02:51:19;25.90;;;11.50;;
27796;SDS011;15177;50.844;4.412;2024-02-04T02:53:45;31.43;;;11.83;;
27796;SDS011;15177;50.844;4.412;2024-02-04T02:56:11;25.13;;;11.80;;
27796;SDS011;15177;50.844;4.412;2024-02-04T02:58:36;22.03;;;11.27;;
27796;SDS011;15177;50.844;4.412;2024-02-04T03:01:02;29.70;;;13.17;;
27796;SDS011;15177;50.844;4.412;2024-02-04T03:03:28;27.90;;;11.60;;
27796;SDS011;15177;50.844;4.412;2024-02-04T03:05:55;28.87;;;12.40;;
27796;SDS011;15177;50.844;4.412;2024-02-04T03:08:21;22.57;;;11.40;;
27796;SDS011;15177;50.844;4.412;2024-02-04T03:10:51;36.43;;;12.33;;
27796;SDS011;15177;50.844;4.412;2024-02-04T03:13:19;26.50;;;11.57;;
27796;SDS011;15177;50.844;4.412;2024-02-04T03:15:45;25.10;;;12.63;;
27796;SDS011;15177;50.844;4.412;2024-02-04T03:18:11;37.87;;;12.63;;
27796;SDS011;15177;50.844;4.412;2024-02-04T03:20:38;27.30;;;12.27;;
27796;SDS011;15177;50.844;4.412;2024-02-04T03:23:04;24.60;;;12.40;;
27796;SDS011;15177;50.844;4.412;2024-02-04T03:25:32;33.87;;;12.60;;
27796;SDS011;15177;50.844;4.412;2024-02-04T03:27:58;25.77;;;12.33;;
27796;SDS011;15177;50.844;4.412;2024-02-04T03:30:23;27.87;;;11.77;;
27796;SDS011;15177;50.844;4.412;2024-02-04T03:32:49;30.30;;;12.00;;
27796;SDS011;15177;50.844;4.412;2024-02-04T03:35:14;21.07;;;11.40;;
27796;SDS011;15177;50.844;4.412;2024-02-04T03:37:40;34.63;;;12.33;;
27796;SDS011;15177;50.844;4.412;2024-02-04T03:40:06;25.93;;;10.77;;
27796;SDS011;15177;50.844;4.412;2024-02-04T03:42:35;26.93;;;11.73;;
27796;SDS011;15177;50.844;4.412;2024-02-04T03:45:00;26.00;;;11.23;;
27796;SDS011;15177;50.844;4.412;2024-02-04T03:47:28;25.27;;;11.37;;
27796;SDS011;15177;50.844;4.412;2024-02-04T03:49:53;27.43;;;10.83;;
27796;SDS011;15177;50.844;4.412;2024-02-04T03:52:19;25.93;;;11.07;;
27796;SDS011;15177;50.844;4.412;2024-02-04T03:54:45;22.23;;;11.03;;
27796;SDS011;15177;50.844;4.412;2024-02-04T03:57:10;28.77;;;11.17;;
27796;SDS011;15177;50.844;4.412;2024-02-04T03:59:36;28.93;;;10.67;;
27796;SDS011;15177;50.844;4.412;2024-02-04T04:02:04;19.63;;;9.70;;
27796;SDS011;15177;50.844;4.412;2024-02-04T04:04:30;22.23;;;10.50;;
27796;SDS011;15177;50.844;4.412;2024-02-04T04:06:55;24.70;;;10.50;;
27796;SDS011;15177;50.844;4.412;2024-02-04T04:09:21;20.47;;;10.37;;
27796;SDS011;15177;50.844;4.412;2024-02-04T04:11:47;21.77;;;9.97;;
27796;SDS011;15177;50.844;4.412;2024-02-04T04:14:17;21.93;;;8.83;;
27796;SDS011;15177;50.844;4.412;2024-02-04T04:16:43;18.77;;;9.80;;
27796;SDS011;15177;50.844;4.412;2024-02-04T04:19:11;20.70;;;9.67;;
27796;SDS011;15177;50.844;4.412;2024-02-04T04:21:37;18.80;;;9.40;;
27796;SDS011;15177;50.844;4.412;2024-02-04T04:24:03;17.63;;;10.00;;
27796;SDS011;15177;50.844;4.412;2024-02-04T04:26:30;25.37;;;9.90;;
27796;SDS011;15177;50.844;4.412;2024-02-04T04:28:56;22.33;;;9.80;;
27796;SDS011;15177;50.844;4.412;2024-02-04T04:31:22;20.90;;;9.63;;
27796;SDS011;15177;50.844;4.412;2024-02-04T04:33:47;26.03;;;10.83;;
27796;SDS011;15177;50.844;4.412;2024-02-04T04:36:13;19.13;;;9.63;;
27796;SDS011;15177;50.844;4.412;2024-02-04T04:38:39;23.17;;;10.73;;
27796;SDS011;15177;50.844;4.412;2024-02-04T04:41:04;24.40;;;10.27;;
27796;SDS011;15177;50.844;4.412;2024-02-04T04:43:30;22.40;;;9.73;;
27796;SDS011;15177;50.844;4.412;2024-02-04T04:45:56;20.17;;;9.07;;
27796;SDS011;15177;50.844;4.412;2024-02-04T04:48:22;21.53;;;8.77;;
27796;SDS011;15177;50.844;4.412;2024-02-04T04:50:47;22.83;;;9.73;;
27796;SDS011;15177;50.844;4.412;2024-02-04T04:53:13;23.30;;;10.10;;
27796;SDS011;15177;50.844;4.412;2024-02-04T04:55:38;19.83;;;8.67;;
27796;SDS011;15177;50.844;4.412;2024-02-04T04:58:04;20.73;;;9.43;;
27796;SDS011;15177;50.844;4.412;2024-02-04T05:00:30;20.17;;;8.70;;
27796;SDS011;15177;50.844;4.412;2024-02-04T05:03:00;23.00;;;8.67;;
27796;SDS011;15177;50.844;4.412;2024-02-04T05:05:25;18.53;;;8.63;;
27796;SDS011;15177;50.844;4.412;2024-02-04T05:07:51;23.53;;;9.37;;
27796;SDS011;15177;50.844;4.412;2024-02-04T05:10:19;20.87;;;9.20;;
27796;SDS011;15177;50.844;4.412;2024-02-04T05:12:45;20.87;;;9.03;;
27796;SDS011;15177;50.844;4.412;2024-02-04T05:15:10;22.80;;;9.17;;
27796;SDS011;15177;50.844;4.412;2024-02-04T05:17:36;23.70;;;9.20;;
27796;SDS011;15177;50.844;4.412;2024-02-04T05:20:02;25.07;;;9.80;;
27796;SDS011;15177;50.844;4.412;2024-02-04T05:22:29;17.27;;;8.50;;
27796;SDS011;15177;50.844;4.412;2024-02-04T05:24:54;20.03;;;8.13;;
27796;SDS011;15177;50.844;4.412;2024-02-04T05:27:20;20.87;;;8.57;;
27796;SDS011;15177;50.844;4.412;2024-02-04T05:29:48;20.87;;;8.53;;
27796;SDS011;15177;50.844;4.412;2024-02-04T05:32:14;20.10;;;8.93;;
27796;SDS011;15177;50.844;4.412;2024-02-04T05:34:39;19.13;;;9.77;;
27796;SDS011;15177;50.844;4.412;2024-02-04T05:37:05;19.77;;;9.20;;
27796;SDS011;15177;50.844;4.412;2024-02-04T05:39:33;29.93;;;10.53;;
27796;SDS011;15177;50.844;4.412;2024-02-04T05:41:58;23.57;;;10.30;;
27796;SDS011;15177;50.844;4.412;2024-02-04T05:44:24;28.40;;;10.37;;
27796;SDS011;15177;50.844;4.412;2024-02-04T05:46:50;29.37;;;9.73;;
27796;SDS011;15177;50.844;4.412;2024-02-04T05:49:18;24.10;;;10.57;;
27796;SDS011;15177;50.844;4.412;2024-02-04T05:51:43;24.63;;;10.13;;
27796;SDS011;15177;50.844;4.412;2024-02-04T05:54:09;26.17;;;10.57;;
27796;SDS011;15177;50.844;4.412;2024-02-04T05:56:35;29.10;;;11.77;;
27796;SDS011;15177;50.844;4.412;2024-02-04T05:59:01;18.73;;;10.77;;
27796;SDS011;15177;50.844;4.412;2024-02-04T06:01:26;26.10;;;11.23;;
27796;SDS011;15177;50.844;4.412;2024-02-04T06:03:52;30.97;;;11.13;;
27796;SDS011;15177;50.844;4.412;2024-02-04T06:06:20;23.33;;;10.87;;
27796;SDS011;15177;50.844;4.412;2024-02-04T06:08:46;22.87;;;10.87;;
27796;SDS011;15177;50.844;4.412;2024-02-04T06:11:12;31.13;;;11.47;;
27796;SDS011;15177;50.844;4.412;2024-02-04T06:13:42;24.27;;;11.13;;
27796;SDS011;15177;50.844;4.412;2024-02-04T06:16:11;27.13;;;11.47;;
27796;SDS011;15177;50.844;4.412;2024-02-04T06:18:40;25.00;;;10.47;;
27796;SDS011;15177;50.844;4.412;2024-02-04T06:21:05;32.80;;;12.13;;
27796;SDS011;15177;50.844;4.412;2024-02-04T06:23:34;31.53;;;12.07;;
27796;SDS011;15177;50.844;4.412;2024-02-04T06:26:03;28.40;;;11.53;;
27796;SDS011;15177;50.844;4.412;2024-02-04T06:28:29;34.07;;;12.73;;
27796;SDS011;15177;50.844;4.412;2024-02-04T06:30:55;20.87;;;11.00;;
27796;SDS011;15177;50.844;4.412;2024-02-04T06:33:21;27.33;;;10.10;;
27796;SDS011;15177;50.844;4.412;2024-02-04T06:35:50;22.87;;;10.17;;
27796;SDS011;15177;50.844;4.412;2024-02-04T06:38:18;21.13;;;10.90;;
27796;SDS011;15177;50.844;4.412;2024-02-04T06:40:44;23.37;;;10.63;;
27796;SDS011;15177;50.844;4.412;2024-02-04T06:43:12;24.07;;;12.00;;
27796;SDS011;15177;50.844;4.412;2024-02-04T06:45:37;26.10;;;11.13;;
27796;SDS011;15177;50.844;4.412;2024-02-04T06:48:05;28.03;;;10.60;;
27796;SDS011;15177;50.844;4.412;2024-02-04T06:50:32;28.87;;;10.37;;
27796;SDS011;15177;50.844;4.412;2024-02-04T06:52:57;21.70;;;10.33;;
27796;SDS011;15177;50.844;4.412;2024-02-04T06:55:23;22.30;;;10.43;;
27796;SDS011;15177;50.844;4.412;2024-02-04T06:57:49;21.37;;;9.87;;
27796;SDS011;15177;50.844;4.412;2024-02-04T07:00:14;26.43;;;11.70;;
27796;SDS011;15177;50.844;4.412;2024-02-04T07:02:40;24.57;;;10.73;;
27796;SDS011;15177;50.844;4.412;2024-02-04T07:05:08;27.50;;;11.70;;
27796;SDS011;15177;50.844;4.412;2024-02-04T07:07:37;26.83;;;10.93;;
27796;SDS011;15177;50.844;4.412;2024-02-04T07:10:03;29.47;;;11.30;;
27796;SDS011;15177;50.844;4.412;2024-02-04T07:12:29;20.47;;;9.80;;
27796;SDS011;15177;50.844;4.412;2024-02-04T07:14:55;25.77;;;11.20;;
27796;SDS011;15177;50.844;4.412;2024-02-04T07:17:20;25.23;;;11.60;;
27796;SDS011;15177;50.844;4.412;2024-02-04T07:19:48;24.47;;;12.37;;
27796;SDS011;15177;50.844;4.412;2024-02-04T07:22:16;25.80;;;12.50;;
27796;SDS011;15177;50.844;4.412;2024-02-04T07:24:42;28.63;;;12.17;;
27796;SDS011;15177;50.844;4.412;2024-02-04T07:27:10;29.20;;;12.13;;
27796;SDS011;15177;50.844;4.412;2024-02-04T07:29:35;30.90;;;14.07;;
27796;SDS011;15177;50.844;4.412;2024-02-04T07:32:01;33.37;;;12.93;;
27796;SDS011;15177;50.844;4.412;2024-02-04T07:34:27;32.23;;;13.17;;
27796;SDS011;15177;50.844;4.412;2024-02-04T07:36:52;26.93;;;13.63;;
27796;SDS011;15177;50.844;4.412;2024-02-04T07:39:20;26.63;;;12.80;;
27796;SDS011;15177;50.844;4.412;2024-02-04T07:41:48;28.00;;;12.43;;
27796;SDS011;15177;50.844;4.412;2024-02-04T07:44:18;31.77;;;11.30;;
27796;SDS011;15177;50.844;4.412;2024-02-04T07:46:44;31.73;;;13.83;;
27796;SDS011;15177;50.844;4.412;2024-02-04T07:49:10;28.63;;;12.80;;
27796;SDS011;15177;50.844;4.412;2024-02-04T07:51:36;29.07;;;12.97;;
27796;SDS011;15177;50.844;4.412;2024-02-04T07:54:02;28.20;;;11.23;;
27796;SDS011;15177;50.844;4.412;2024-02-04T07:56:29;21.47;;;10.90;;
27796;SDS011;15177;50.844;4.412;2024-02-04T07:58:54;23.37;;;11.00;;
27796;SDS011;15177;50.844;4.412;2024-02-04T08:01:20;27.73;;;11.17;;
27796;SDS011;15177;50.844;4.412;2024-02-04T08:03:45;26.13;;;11.07;;
27796;SDS011;15177;50.844;4.412;2024-02-04T08:06:13;27.03;;;11.20;;
27796;SDS011;15177;50.844;4.412;2024-02-04T08:08:39;25.33;;;11.13;;
27796;SDS011;15177;50.844;4.412;2024-02-04T08:11:08;21.87;;;10.73;;
27796;SDS011;15177;50.844;4.412;2024-02-04T08:13:34;27.17;;;12.07;;
27796;SDS011;15177;50.844;4.412;2024-02-04T08:15:59;26.63;;;11.70;;
27796;SDS011;15177;50.844;4.412;2024-02-04T08:18:25;36.17;;;13.90;;
27796;SDS011;15177;50.844;4.412;2024-02-04T08:20:53;22.83;;;11.20;;
27796;SDS011;15177;50.844;4.412;2024-02-04T08:23:21;22.73;;;11.20;;
27796;SDS011;15177;50.844;4.412;2024-02-04T08:25:49;20.47;;;9.47;;
27796;SDS011;15177;50.844;4.412;2024-02-04T08:28:17;21.03;;;9.03;;
27796;SDS011;15177;50.844;4.412;2024-02-04T08:30:45;20.37;;;8.50;;
27796;SDS011;15177;50.844;4.412;2024-02-04T08:33:11;21.07;;;9.40;;
27796;SDS011;15177;50.844;4.412;2024-02-04T08:35:39;18.70;;;8.93;;
27796;SDS011;15177;50.844;4.412;2024-02-04T08:38:07;18.07;;;9.17;;
27796;SDS011;15177;50.844;4.412;2024-02-04T08:40:33;18.10;;;8.80;;
27796;SDS011;15177;50.844;4.412;2024-02-04T08:42:58;20.10;;;9.10;;
27796;SDS011;15177;50.844;4.412;2024-02-04T08:45:24;24.67;;;9.37;;
27796;SDS011;15177;50.844;4.412;2024-02-04T08:47:50;23.90;;;10.40;;
27796;SDS011;15177;50.844;4.412;2024-02-04T08:50:18;18.87;;;8.40;;
27796;SDS011;15177;50.844;4.412;2024-02-04T08:52:45;16.03;;;8.80;;
27796;SDS011;15177;50.844;4.412;2024-02-04T08:55:10;19.70;;;8.47;;
27796;SDS011;15177;50.844;4.412;2024-02-04T08:57:36;21.67;;;7.93;;
27796;SDS011;15177;50.844;4.412;2024-02-04T09:00:02;16.27;;;7.83;;
27796;SDS011;15177;50.844;4.412;2024-02-04T09:02:28;17.07;;;7.03;;
27796;SDS011;15177;50.844;4.412;2024-02-04T09:04:57;20.00;;;7.20;;
27796;SDS011;15177;50.844;4.412;2024-02-04T09:07:22;8.80;;;6.07;;
27796;SDS011;15177;50.844;4.412;2024-02-04T09:09:48;16.37;;;6.80;;
27796;SDS011;15177;50.844;4.412;2024-02-04T09:12:13;19.97;;;6.70;;
27796;SDS011;15177;50.844;4.412;2024-02-04T09:14:39;14.10;;;5.33;;
27796;SDS011;15177;50.844;4.412;2024-02-04T09:17:05;16.07;;;5.90;;
27796;SDS011;15177;50.844;4.412;2024-02-04T09:19:36;10.33;;;5.37;;
27796;SDS011;15177;50.844;4.412;2024-02-04T09:22:01;12.77;;;4.83;;
27796;SDS011;15177;50.844;4.412;2024-02-04T09:24:28;10.83;;;4.47;;
27796;SDS011;15177;50.844;4.412;2024-02-04T09:26:56;9.60;;;4.83;;
27796;SDS011;15177;50.844;4.412;2024-02-04T09:29:24;11.63;;;5.07;;
27796;SDS011;15177;50.844;4.412;2024-02-04T09:31:52;10.50;;;3.80;;
27796;SDS011;15177;50.844;4.412;2024-02-04T09:34:21;11.50;;;4.27;;
27796;SDS011;15177;50.844;4.412;2024-02-04T09:36:49;10.50;;;4.40;;
27796;SDS011;15177;50.844;4.412;2024-02-04T09:39:15;11.43;;;3.57;;
27796;SDS011;15177;50.844;4.412;2024-02-04T09:41:43;11.07;;;5.03;;
27796;SDS011;15177;50.844;4.412;2024-02-04T09:44:11;8.67;;;4.00;;
27796;SDS011;15177;50.844;4.412;2024-02-04T09:46:37;9.43;;;3.77;;
27796;SDS011;15177;50.844;4.412;2024-02-04T09:49:08;5.73;;;3.30;;
27796;SDS011;15177;50.844;4.412;2024-02-04T09:51:34;13.03;;;4.13;;
27796;SDS011;15177;50.844;4.412;2024-02-04T09:54:03;8.43;;;3.23;;
27796;SDS011;15177;50.844;4.412;2024-02-04T09:56:31;11.20;;;3.90;;
27796;SDS011;15177;50.844;4.412;2024-02-04T09:59:02;11.53;;;4.13;;
27796;SDS011;15177;50.844;4.412;2024-02-04T10:01:28;9.73;;;4.17;;
27796;SDS011;15177;50.844;4.412;2024-02-04T10:03:54;10.43;;;4.00;;
27796;SDS011;15177;50.844;4.412;2024-02-04T10:06:20;10.67;;;3.40;;
27796;SDS011;15177;50.844;4.412;2024-02-04T10:08:49;12.87;;;4.27;;
27796;SDS011;15177;50.844;4.412;2024-02-04T10:11:14;6.40;;;4.10;;
27796;SDS011;15177;50.844;4.412;2024-02-04T10:13:47;9.80;;;4.43;;
27796;SDS011;15177;50.844;4.412;2024-02-04T10:16:15;7.23;;;4.43;;
27796;SDS011;15177;50.844;4.412;2024-02-04T10:18:44;9.40;;;4.80;;
27796;SDS011;15177;50.844;4.412;2024-02-04T10:21:17;10.13;;;4.50;;
27796;SDS011;15177;50.844;4.412;2024-02-04T10:23:46;12.63;;;5.17;;
27796;SDS011;15177;50.844;4.412;2024-02-04T10:26:16;11.03;;;4.60;;
27796;SDS011;15177;50.844;4.412;2024-02-04T10:28:44;11.77;;;5.27;;
27796;SDS011;15177;50.844;4.412;2024-02-04T10:31:11;9.43;;;5.37;;
27796;SDS011;15177;50.844;4.412;2024-02-04T10:33:38;12.30;;;5.33;;
27796;SDS011;15177;50.844;4.412;2024-02-04T10:36:04;12.47;;;5.13;;
27796;SDS011;15177;50.844;4.412;2024-02-04T10:38:30;9.67;;;5.50;;
27796;SDS011;15177;50.844;4.412;2024-02-04T10:41:00;14.63;;;5.50;;
27796;SDS011;15177;50.844;4.412;2024-02-04T10:43:38;8.37;;;4.17;;
27796;SDS011;15177;50.844;4.412;2024-02-04T10:46:09;16.90;;;4.80;;
27796;SDS011;15177;50.844;4.412;2024-02-04T10:48:41;7.77;;;3.93;;
27796;SDS011;15177;50.844;4.412;2024-02-04T10:51:15;10.67;;;4.13;;
27796;SDS011;15177;50.844;4.412;2024-02-04T10:53:46;7.37;;;3.63;;
27796;SDS011;15177;50.844;4.412;2024-02-04T10:56:22;10.90;;;3.83;;
27796;SDS011;15177;50.844;4.412;2024-02-04T10:58:48;8.33;;;3.73;;
27796;SDS011;15177;50.844;4.412;2024-02-04T11:01:17;7.40;;;3.50;;
27796;SDS011;15177;50.844;4.412;2024-02-04T11:03:43;12.60;;;3.23;;
27796;SDS011;15177;50.844;4.412;2024-02-04T11:06:11;5.60;;;3.00;;
27796;SDS011;15177;50.844;4.412;2024-02-04T11:08:38;4.73;;;2.73;;
27796;SDS011;15177;50.844;4.412;2024-02-04T11:11:04;4.30;;;2.43;;
27796;SDS011;15177;50.844;4.412;2024-02-04T11:13:30;6.23;;;2.87;;
27796;SDS011;15177;50.844;4.412;2024-02-04T11:16:00;3.73;;;2.30;;
27796;SDS011;15177;50.844;4.412;2024-02-04T11:21:34;7.63;;;2.13;;
27796;SDS011;15177;50.844;4.412;2024-02-04T11:27:00;4.87;;;2.33;;
27796;SDS011;15177;50.844;4.412;2024-02-04T11:29:27;5.57;;;2.50;;
27796;SDS011;15177;50.844;4.412;2024-02-04T11:31:53;7.00;;;2.07;;
27796;SDS011;15177;50.844;4.412;2024-02-04T11:34:19;6.47;;;2.73;;
27796;SDS011;15177;50.844;4.412;2024-02-04T11:36:47;8.10;;;2.30;;
27796;SDS011;15177;50.844;4.412;2024-02-04T11:39:13;6.17;;;2.30;;
27796;SDS011;15177;50.844;4.412;2024-02-04T11:41:49;4.83;;;2.30;;
27796;SDS011;15177;50.844;4.412;2024-02-04T11:44:22;4.83;;;2.33;;
27796;SDS011;15177;50.844;4.412;2024-02-04T11:46:49;8.00;;;2.33;;
27796;SDS011;15177;50.844;4.412;2024-02-04T11:49:16;5.83;;;2.20;;
27796;SDS011;15177;50.844;4.412;2024-02-04T11:51:47;9.30;;;2.13;;
27796;SDS011;15177;50.844;4.412;2024-02-04T11:54:15;3.33;;;1.80;;
27796;SDS011;15177;50.844;4.412;2024-02-04T11:56:42;5.60;;;2.60;;
27796;SDS011;15177;50.844;4.412;2024-02-04T11:59:09;6.83;;;1.87;;
27796;SDS011;15177;50.844;4.412;2024-02-04T12:01:39;6.37;;;2.53;;
27796;SDS011;15177;50.844;4.412;2024-02-04T12:04:17;9.97;;;2.10;;
27796;SDS011;15177;50.844;4.412;2024-02-04T12:06:43;9.50;;;2.20;;
27796;SDS011;15177;50.844;4.412;2024-02-04T12:09:11;7.10;;;2.53;;
27796;SDS011;15177;50.844;4.412;2024-02-04T12:11:37;5.50;;;1.97;;
27796;SDS011;15177;50.844;4.412;2024-02-04T12:14:04;10.50;;;2.77;;
27796;SDS011;15177;50.844;4.412;2024-02-04T12:16:32;6.97;;;2.30;;
27796;SDS011;15177;50.844;4.412;2024-02-04T12:19:00;7.53;;;2.67;;
27796;SDS011;15177;50.844;4.412;2024-02-04T12:21:28;6.30;;;2.97;;
27796;SDS011;15177;50.844;4.412;2024-02-04T12:23:54;9.10;;;2.10;;
27796;SDS011;15177;50.844;4.412;2024-02-04T12:26:22;6.43;;;2.70;;
27796;SDS011;15177;50.844;4.412;2024-02-04T12:28:51;13.37;;;3.47;;
27796;SDS011;15177;50.844;4.412;2024-02-04T12:31:18;6.70;;;2.53;;
27796;SDS011;15177;50.844;4.412;2024-02-04T12:33:51;6.47;;;3.43;;
27796;SDS011;15177;50.844;4.412;2024-02-04T12:36:20;3.40;;;2.30;;
27796;SDS011;15177;50.844;4.412;2024-02-04T12:38:52;8.97;;;2.60;;
27796;SDS011;15177;50.844;4.412;2024-02-04T12:41:21;10.70;;;2.67;;
27796;SDS011;15177;50.844;4.412;2024-02-04T12:43:58;3.50;;;2.40;;
27796;SDS011;15177;50.844;4.412;2024-02-04T12:46:25;6.20;;;2.50;;
27796;SDS011;15177;50.844;4.412;2024-02-04T12:48:55;9.17;;;2.70;;
27796;SDS011;15177;50.844;4.412;2024-02-04T12:54:08;7.37;;;3.00;;
27796;SDS011;15177;50.844;4.412;2024-02-04T12:56:49;7.87;;;2.80;;
27796;SDS011;15177;50.844;4.412;2024-02-04T13:01:57;5.40;;;2.30;;
27796;SDS011;15177;50.844;4.412;2024-02-04T13:04:25;4.27;;;2.43;;
27796;SDS011;15177;50.844;4.412;2024-02-04T13:06:51;3.77;;;2.50;;
27796;SDS011;15177;50.844;4.412;2024-02-04T13:09:19;4.83;;;2.27;;
27796;SDS011;15177;50.844;4.412;2024-02-04T13:11:46;4.53;;;2.10;;
27796;SDS011;15177;50.844;4.412;2024-02-04T13:14:11;4.17;;;2.17;;
27796;SDS011;15177;50.844;4.412;2024-02-04T13:16:37;3.13;;;2.07;;
27796;SDS011;15177;50.844;4.412;2024-02-04T13:19:03;3.97;;;2.40;;
27796;SDS011;15177;50.844;4.412;2024-02-04T13:21:29;3.90;;;2.40;;
27796;SDS011;15177;50.844;4.412;2024-02-04T13:23:55;5.83;;;2.37;;
27796;SDS011;15177;50.844;4.412;2024-02-04T13:26:21;7.97;;;2.30;;
27796;SDS011;15177;50.844;4.412;2024-02-04T13:28:49;5.43;;;2.00;;
27796;SDS011;15177;50.844;4.412;2024-02-04T13:31:15;5.03;;;2.27;;
27796;SDS011;15177;50.844;4.412;2024-02-04T13:33:41;4.13;;;2.07;;
27796;SDS011;15177;50.844;4.412;2024-02-04T13:36:07;8.23;;;3.03;;
27796;SDS011;15177;50.844;4.412;2024-02-04T13:38:33;5.23;;;2.40;;
27796;SDS011;15177;50.844;4.412;2024-02-04T13:41:00;4.30;;;2.50;;
27796;SDS011;15177;50.844;4.412;2024-02-04T13:43:29;4.67;;;2.47;;
27796;SDS011;15177;50.844;4.412;2024-02-04T13:45:55;4.80;;;2.93;;
27796;SDS011;15177;50.844;4.412;2024-02-04T13:48:23;5.33;;;2.60;;
27796;SDS011;15177;50.844;4.412;2024-02-04T13:50:51;6.30;;;2.70;;
27796;SDS011;15177;50.844;4.412;2024-02-04T13:53:16;6.00;;;2.80;;
27796;SDS011;15177;50.844;4.412;2024-02-04T13:55:42;3.80;;;2.83;;
27796;SDS011;15177;50.844;4.412;2024-02-04T13:58:08;10.73;;;3.63;;
27796;SDS011;15177;50.844;4.412;2024-02-04T14:00:36;5.97;;;2.53;;
27796;SDS011;15177;50.844;4.412;2024-02-04T14:03:02;8.47;;;3.20;;
27796;SDS011;15177;50.844;4.412;2024-02-04T14:05:30;6.53;;;3.30;;
27796;SDS011;15177;50.844;4.412;2024-02-04T14:07:56;7.60;;;2.97;;
27796;SDS011;15177;50.844;4.412;2024-02-04T14:10:22;7.50;;;3.20;;
27796;SDS011;15177;50.844;4.412;2024-02-04T14:12:47;4.67;;;2.97;;
27796;SDS011;15177;50.844;4.412;2024-02-04T14:15:13;8.17;;;3.03;;
27796;SDS011;15177;50.844;4.412;2024-02-04T14:17:39;7.20;;;3.50;;
27796;SDS011;15177;50.844;4.412;2024-02-04T14:20:07;9.80;;;3.17;;
27796;SDS011;15177;50.844;4.412;2024-02-04T14:22:34;5.60;;;3.77;;
27796;SDS011;15177;50.844;4.412;2024-02-04T14:24:59;5.53;;;3.90;;
27796;SDS011;15177;50.844;4.412;2024-02-04T14:27:25;9.07;;;3.30;;
27796;SDS011;15177;50.844;4.412;2024-02-04T14:29:51;7.50;;;3.73;;
27796;SDS011;15177;50.844;4.412;2024-02-04T14:32:17;7.60;;;3.40;;
27796;SDS011;15177;50.844;4.412;2024-02-04T14:34:43;12.27;;;3.40;;
27796;SDS011;15177;50.844;4.412;2024-02-04T14:37:09;8.50;;;3.90;;
27796;SDS011;15177;50.844;4.412;2024-02-04T14:39:38;10.00;;;4.23;;
27796;SDS011;15177;50.844;4.412;2024-02-04T14:42:04;6.87;;;3.87;;
27796;SDS011;15177;50.844;4.412;2024-02-04T14:44:35;8.03;;;3.13;;
27796;SDS011;15177;50.844;4.412;2024-02-04T14:47:03;10.97;;;3.23;;